Terminal Aerodrome Forecast
Issued by NWS Cleveland, OH

Home | Current Version | Previous Version | Graphics & Text | Print | Product List | Glossary On
Versions: 1 2 3 4 5 6 7 8 9 10 11 12 13 14 15 16 17 18 19 20 21 22 23 24 25 26
000
FTUS41 KCLE 260500
TAFCLE
TAF
KCLE 260531Z 2606/2712 05008KT P6SM OVC100
     FM261300 03010KT 4SM -SN OVC025
     FM261500 03012KT 1 1/2SM -SN BR OVC012
     FM262000 01012KT 4SM -SN BR OVC015
     FM270300 34008KT 6SM -SN OVC018
     FM270800 31006KT P6SM SCT020=

USA.gov is the U.S. government's official web portal to all federal, state and local government web resources and services.